Time;durP1;ratioP1;P1;durP2;ratioP2;P2;SDS_P1;SDS_P2;PMS_P1;PMS_P2;Temp;Humidity;BMP_temperature;BMP_pressure;BME280_temperature;BME280_humidity;BME280_pressure;Samples;Min_cycle;Max_cycle;Signal;HPM_P1;HPM_P2
2022/04/29 00:00:11;;;;;;;9.15;6.95;;;13.10;59.20;;;;;;4993907;28;20248;-81
2022/04/29 00:02:40;;;;;;;7.55;6.80;;;13.10;59.70;;;;;;4995516;28;20162;-81
2022/04/29 00:05:08;;;;;;;12.57;7.18;;;13.10;59.60;;;;;;4996828;28;20566;-80
2022/04/29 00:07:38;;;;;;;9.82;7.13;;;13.00;59.80;;;;;;4993902;28;20172;-80
2022/04/29 00:10:07;;;;;;;14.00;9.25;;;13.00;60.10;;;;;;4994895;28;20263;-80
2022/04/29 00:12:33;;;;;;;10.07;7.22;;;13.00;60.60;;;;;;4994947;28;20195;-77
2022/04/29 00:14:59;;;;;;;8.05;6.88;;;13.00;61.00;;;;;;4994738;28;20202;-76
2022/04/29 00:17:25;;;;;;;9.68;7.07;;;12.90;61.40;;;;;;4994932;28;20163;-76
2022/04/29 00:19:51;;;;;;;9.50;6.37;;;12.90;61.70;;;;;;4993805;28;20214;-76
2022/04/29 00:22:16;;;;;;;12.77;6.83;;;12.90;62.30;;;;;;4993800;28;20664;-76
2022/04/29 00:24:42;;;;;;;10.13;6.63;;;12.90;62.70;;;;;;4994624;28;20191;-76
2022/04/29 00:27:08;;;;;;;10.30;7.07;;;12.90;63.00;;;;;;4993408;28;20175;-76
2022/04/29 00:29:34;;;;;;;9.70;7.20;;;12.90;63.40;;;;;;4992972;28;20179;-77
2022/04/29 00:31:59;;;;;;;11.47;7.40;;;12.90;63.80;;;;;;4994563;28;20651;-76
2022/04/29 00:34:25;;;;;;;10.17;7.80;;;12.90;64.40;;;;;;4994464;28;20211;-77
2022/04/29 00:36:51;;;;;;;8.40;7.10;;;12.90;64.80;;;;;;4960735;28;20649;-77
2022/04/29 00:39:17;;;;;;;9.83;7.20;;;12.90;65.30;;;;;;4993906;28;20605;-77
2022/04/29 00:41:44;;;;;;;8.37;7.00;;;12.90;65.70;;;;;;4976568;28;20171;-77
2022/04/29 00:44:11;;;;;;;8.80;7.60;;;12.80;66.10;;;;;;4994867;28;20293;-76
2022/04/29 00:46:39;;;;;;;13.60;7.50;;;12.80;66.60;;;;;;4978037;28;20182;-76
2022/04/29 00:49:08;;;;;;;8.43;7.35;;;12.80;66.80;;;;;;4977000;28;20186;-76
2022/04/29 00:51:34;;;;;;;9.95;6.93;;;12.80;67.30;;;;;;4977374;28;20211;-76
2022/04/29 00:54:02;;;;;;;9.27;7.45;;;12.80;67.70;;;;;;4977396;28;20813;-76
2022/04/29 00:56:31;;;;;;;10.63;6.88;;;12.70;68.10;;;;;;4978324;28;20198;-77
2022/04/29 00:59:12;;;;;;;8.77;7.28;;;12.70;69.00;;;;;;4977825;28;20658;-76
2022/04/29 01:01:39;;;;;;;8.10;7.25;;;12.70;70.00;;;;;;4977806;28;20210;-76
2022/04/29 01:04:08;;;;;;;10.27;7.90;;;12.70;69.40;;;;;;4994154;28;20671;-77
2022/04/29 01:06:33;;;;;;;11.05;8.82;;;12.60;70.30;;;;;;4994870;28;20198;-77
2022/04/29 01:08:59;;;;;;;10.43;7.37;;;12.60;70.30;;;;;;4994485;28;20175;-76
2022/04/29 01:11:26;;;;;;;8.30;6.70;;;12.60;70.80;;;;;;4995133;28;20261;-77
2022/04/29 01:13:53;;;;;;;11.27;8.68;;;12.50;71.40;;;;;;4995606;28;20183;-77
2022/04/29 01:16:20;;;;;;;13.00;7.72;;;12.50;72.10;;;;;;4994941;28;20227;-76
2022/04/29 01:18:49;;;;;;;11.27;7.50;;;12.40;72.40;;;;;;4994234;28;20631;-76
2022/04/29 01:21:15;;;;;;;10.38;7.53;;;12.40;73.10;;;;;;4977541;28;20175;-77
2022/04/29 01:23:43;;;;;;;9.65;7.78;;;12.40;73.60;;;;;;4976699;28;20214;-75
2022/04/29 01:26:14;;;;;;;10.68;7.72;;;12.40;74.10;;;;;;4992755;28;20210;-75
2022/04/29 01:28:47;;;;;;;8.38;6.60;;;12.30;74.80;;;;;;4993625;28;20197;-76
2022/04/29 01:31:15;;;;;;;11.50;7.70;;;12.30;75.20;;;;;;4977971;28;20179;-76
2022/04/29 01:33:44;;;;;;;10.45;8.20;;;12.30;75.80;;;;;;4977641;28;20618;-76
2022/04/29 01:36:11;;;;;;;8.98;6.82;;;12.20;76.60;;;;;;4978281;28;20210;-76
2022/04/29 01:38:38;;;;;;;9.88;7.40;;;12.20;77.20;;;;;;4994168;28;20202;-76
2022/04/29 01:41:06;;;;;;;11.48;7.63;;;12.20;77.80;;;;;;4994213;28;20167;-76
2022/04/29 01:43:37;;;;;;;8.35;7.53;;;12.10;78.30;;;;;;4993656;28;20159;-76
2022/04/29 01:46:04;;;;;;;10.15;7.13;;;12.10;79.00;;;;;;4993646;28;20266;-76
2022/04/29 01:48:42;;;;;;;10.13;7.30;;;12.10;79.90;;;;;;4993329;28;20258;-76
2022/04/29 01:51:11;;;;;;;11.80;8.20;;;12.10;80.70;;;;;;4992958;28;20192;-76
2022/04/29 01:53:37;;;;;;;11.20;8.60;;;12.10;81.40;;;;;;4993341;28;20533;-76
2022/04/29 01:56:03;;;;;;;10.52;8.48;;;12.10;82.00;;;;;;4993410;28;20575;-77
2022/04/29 01:58:29;;;;;;;11.45;8.20;;;12.10;82.90;;;;;;4994094;28;20178;-77
2022/04/29 02:00:55;;;;;;;10.53;8.27;;;12.00;84.10;;;;;;4988379;28;20164;-77
2022/04/29 02:03:21;;;;;;;12.30;8.87;;;12.00;84.20;;;;;;4975881;28;20952;-77
2022/04/29 02:05:47;;;;;;;8.20;6.50;;;12.00;84.80;;;;;;4975320;28;20192;-77
2022/04/29 02:08:13;;;;;;;9.57;7.85;;;12.00;85.20;;;;;;4975522;28;20511;-76
2022/04/29 02:10:42;;;;;;;8.07;7.28;;;12.00;85.70;;;;;;4974522;28;20191;-76
2022/04/29 02:13:10;;;;;;;9.70;7.78;;;12.00;86.30;;;;;;4974308;28;20192;-77
2022/04/29 02:15:41;;;;;;;12.15;8.07;;;12.00;86.80;;;;;;4974282;28;20208;-76
2022/04/29 02:18:11;;;;;;;10.88;9.40;;;12.00;87.40;;;;;;4973572;28;20176;-76
2022/04/29 02:20:36;;;;;;;9.55;8.13;;;12.00;88.10;;;;;;4957712;28;20654;-77
2022/04/29 02:23:02;;;;;;;7.97;7.17;;;12.00;88.70;;;;;;4974714;28;20179;-76
2022/04/29 02:25:28;;;;;;;11.95;8.88;;;12.00;89.30;;;;;;4958760;28;20306;-76
2022/04/29 02:27:54;;;;;;;10.10;8.20;;;12.00;89.70;;;;;;4975213;28;20179;-77
2022/04/29 02:30:21;;;;;;;10.50;9.23;;;12.00;90.10;;;;;;4973246;28;20184;-76
2022/04/29 02:32:47;;;;;;;9.50;7.55;;;12.00;90.30;;;;;;4972124;28;20184;-75
2022/04/29 02:35:14;;;;;;;8.63;7.50;;;12.10;90.60;;;;;;4970741;28;20200;-75
2022/04/29 02:37:40;;;;;;;9.93;8.70;;;12.10;90.70;;;;;;4955443;28;20183;-76
2022/04/29 02:40:07;;;;;;;12.23;7.85;;;12.10;90.90;;;;;;4973535;28;20187;-76
2022/04/29 02:42:33;;;;;;;9.75;7.70;;;12.10;91.10;;;;;;4973885;28;20254;-77
2022/04/29 02:44:59;;;;;;;8.80;7.40;;;12.10;91.30;;;;;;4957629;28;20212;-76
2022/04/29 02:47:38;;;;;;;13.65;8.60;;;12.10;91.50;;;;;;4972631;28;20666;-76
2022/04/29 02:50:04;;;;;;;11.90;8.57;;;12.10;91.60;;;;;;4972856;28;20175;-76
2022/04/29 02:52:32;;;;;;;9.32;8.43;;;12.10;91.70;;;;;;4972869;28;20652;-76
2022/04/29 02:54:58;;;;;;;10.85;7.10;;;12.10;91.90;;;;;;4956384;28;20608;-76
2022/04/29 02:57:43;;;;;;;8.73;7.00;;;12.10;92.10;;;;;;4972419;28;20176;-76
2022/04/29 03:00:09;;;;;;;9.30;8.27;;;12.10;92.20;;;;;;4971299;28;20249;-76
2022/04/29 03:02:35;;;;;;;8.50;6.95;;;12.10;92.40;;;;;;4975491;28;20718;-76
2022/04/29 03:05:04;;;;;;;11.30;8.60;;;12.20;92.70;;;;;;4975559;28;20622;-76
2022/04/29 03:07:30;;;;;;;11.40;8.65;;;12.10;92.90;;;;;;4959453;28;20175;-76
2022/04/29 03:09:58;;;;;;;10.45;8.30;;;12.10;93.00;;;;;;4974936;28;20176;-76
2022/04/29 03:12:24;;;;;;;11.47;7.70;;;12.20;93.20;;;;;;4975397;28;20182;-76
2022/04/29 03:15:15;;;;;;;10.85;8.55;;;12.10;93.30;;;;;;4975120;28;20606;-76
2022/04/29 03:20:33;;;;;;;14.00;8.90;;;12.10;93.60;;;;;;4974739;28;20180;-76
2022/04/29 03:22:59;;;;;;;12.27;10.18;;;12.10;93.70;;;;;;4976474;28;20512;-76
2022/04/29 03:25:24;;;;;;;11.17;7.73;;;12.10;93.90;;;;;;4976131;28;20223;-76
2022/04/29 03:27:50;;;;;;;11.77;9.37;;;12.10;94.10;;;;;;4958286;28;20431;-76
2022/04/29 03:30:16;;;;;;;12.57;9.83;;;12.10;94.30;;;;;;4974760;28;20654;-76
2022/04/29 03:32:50;;;;;;;14.77;9.83;;;12.10;94.50;;;;;;4975105;28;20172;-76
2022/04/29 03:35:21;;;;;;;13.30;9.57;;;12.10;95.10;;;;;;4974785;28;20622;-76
2022/04/29 03:37:51;;;;;;;9.50;8.57;;;12.10;94.90;;;;;;4974321;28;20537;-75
2022/04/29 03:40:24;;;;;;;13.18;10.23;;;12.10;95.00;;;;;;4975438;28;20159;-76
2022/04/29 03:42:51;;;;;;;10.23;9.15;;;12.10;95.20;;;;;;4974673;28;20259;-76
2022/04/29 03:45:18;;;;;;;11.52;9.05;;;12.10;95.30;;;;;;4958492;28;20258;-76
2022/04/29 03:47:44;;;;;;;12.15;9.70;;;12.10;95.50;;;;;;4974346;28;20179;-76
2022/04/29 03:50:42;;;;;;;14.25;9.93;;;12.10;95.60;;;;;;4953109;28;20534;-76
2022/04/29 03:53:13;;;;;;;13.38;10.07;;;12.10;95.70;;;;;;4976218;28;20238;-76
2022/04/29 03:55:42;;;;;;;12.68;9.85;;;12.10;96.00;;;;;;4982803;28;20218;-76
2022/04/29 03:58:07;;;;;;;13.37;9.77;;;12.10;96.10;;;;;;4985530;28;20174;-76
2022/04/29 04:00:53;;;;;;;13.60;8.40;;;12.10;96.30;;;;;;4995316;28;20179;-76
2022/04/29 04:03:45;;;;;;;12.50;8.20;;;12.10;96.40;;;;;;4978436;28;20191;-76
2022/04/29 04:09:02;;;;;;;10.95;9.50;;;12.10;96.70;;;;;;4977678;28;21242;-76
2022/04/29 04:11:27;;;;;;;12.20;9.63;;;12.10;96.90;;;;;;4994212;28;20174;-76
2022/04/29 04:13:53;;;;;;;10.80;8.23;;;12.10;97.10;;;;;;4993914;28;20544;-76
2022/04/29 04:16:31;;;;;;;12.23;9.07;;;12.10;97.20;;;;;;4994711;28;20202;-76
2022/04/29 04:18:57;;;;;;;12.40;9.17;;;12.10;97.30;;;;;;4994999;28;20653;-76
2022/04/29 04:21:23;;;;;;;13.67;10.47;;;12.10;97.60;;;;;;4978062;28;20175;-76
2022/04/29 04:23:49;;;;;;;10.77;9.40;;;12.10;97.80;;;;;;4977826;28;20937;-76
2022/04/29 04:26:16;;;;;;;12.60;9.75;;;12.10;98.00;;;;;;4993635;28;20923;-76
2022/04/29 04:28:42;;;;;;;12.43;9.40;;;12.10;98.20;;;;;;4993408;28;20274;-76
2022/04/29 04:31:08;;;;;;;11.25;8.55;;;12.10;98.40;;;;;;4993443;28;20670;-76
2022/04/29 04:33:53;;;;;;;11.63;9.25;;;12.10;98.50;;;;;;4977438;28;20197;-76
2022/04/29 04:36:20;;;;;;;10.70;7.93;;;12.10;98.50;;;;;;4994541;28;20206;-76
2022/04/29 04:38:47;;;;;;;10.40;7.45;;;12.10;99.00;;;;;;4976677;28;20174;-76
2022/04/29 04:41:17;;;;;;;8.25;7.45;;;12.10;98.60;;;;;;4992936;28;20171;-76
2022/04/29 04:43:44;;;;;;;7.75;7.05;;;12.10;98.70;;;;;;4994480;28;20191;-77
2022/04/29 04:46:12;;;;;;;12.80;8.05;;;12.20;99.00;;;;;;4993471;28;20171;-77
2022/04/29 04:48:43;;;;;;;12.35;8.52;;;12.10;99.10;;;;;;4994678;28;20245;-76
2022/04/29 04:51:24;;;;;;;11.80;8.35;;;12.20;99.50;;;;;;4994621;28;20199;-78
2022/04/29 04:54:03;;;;;;;9.05;7.45;;;12.20;99.40;;;;;;4994091;28;20281;-76
2022/04/29 04:56:29;;;;;;;10.95;8.93;;;12.20;99.60;;;;;;4993258;28;20217;-76
2022/04/29 04:58:56;;;;;;;12.80;8.65;;;12.20;99.70;;;;;;4994789;28;20171;-76
2022/04/29 05:01:22;;;;;;;9.82;8.82;;;12.20;99.90;;;;;;4979841;28;20178;-77
2022/04/29 05:04:07;;;;;;;8.85;8.05;;;12.30;99.90;;;;;;4994312;28;20215;-76
2022/04/29 05:07:03;;;;;;;9.15;8.20;;;12.30;99.90;;;;;;4994867;28;20187;-76
2022/04/29 05:09:29;;;;;;;11.07;7.28;;;12.30;99.90;;;;;;4992098;28;20648;-76
2022/04/29 05:11:55;;;;;;;9.30;8.30;;;12.40;99.90;;;;;;4992531;28;20206;-76
2022/04/29 05:14:43;;;;;;;10.18;7.97;;;12.40;99.90;;;;;;4992986;28;21118;-76
2022/04/29 05:17:10;;;;;;;11.30;8.20;;;12.40;99.90;;;;;;4969971;28;20285;-76
2022/04/29 05:19:38;;;;;;;11.52;9.07;;;12.50;99.90;;;;;;4994821;28;20182;-76
2022/04/29 05:22:05;;;;;;;12.00;8.20;;;12.50;99.90;;;;;;4976807;28;20198;-76
2022/04/29 05:24:31;;;;;;;10.93;9.02;;;12.60;99.90;;;;;;4991768;28;20187;-77
2022/04/29 05:27:20;;;;;;;15.38;9.02;;;12.70;99.90;;;;;;4992515;28;20191;-76
2022/04/29 05:30:09;;;;;;;10.50;9.32;;;12.70;99.90;;;;;;4991201;28;20178;-76
2022/04/29 05:33:11;;;;;;;12.68;9.77;;;12.80;99.90;;;;;;4975446;28;20179;-76
2022/04/29 05:35:55;;;;;;;11.80;7.90;;;12.80;99.90;;;;;;4989669;28;20194;-76
2022/04/29 05:44:09;;;;;;;7.97;7.18;;;13.10;99.90;;;;;;4993878;28;20195;-76
2022/04/29 05:46:35;;;;;;;11.55;8.70;;;13.10;99.90;;;;;;4993848;28;20171;-76
2022/04/29 05:49:03;;;;;;;12.93;9.52;;;13.20;99.90;;;;;;4977560;28;20186;-76
2022/04/29 05:51:33;;;;;;;9.13;8.13;;;13.30;99.90;;;;;;4993579;28;20183;-76
2022/04/29 05:54:00;;;;;;;11.15;8.85;;;13.30;99.90;;;;;;4991936;28;20194;-76
2022/04/29 05:56:30;;;;;;;10.38;7.97;;;13.40;99.90;;;;;;4992520;28;20203;-76
2022/04/29 05:58:55;;;;;;;10.55;9.13;;;13.50;99.90;;;;;;4993560;28;20179;-75
2022/04/29 06:01:40;;;;;;;9.05;7.30;;;13.60;99.90;;;;;;4993037;28;20218;-77
2022/04/29 06:04:05;;;;;;;13.80;11.50;;;13.60;99.90;;;;;;4990497;28;21051;-77
2022/04/29 06:06:34;;;;;;;12.52;9.07;;;13.60;99.90;;;;;;4991716;28;20175;-77
2022/04/29 06:09:01;;;;;;;9.60;8.57;;;13.70;99.90;;;;;;4975339;28;20176;-76
2022/04/29 06:11:27;;;;;;;10.30;8.70;;;13.80;99.90;;;;;;4992740;28;20226;-75
2022/04/29 06:13:53;;;;;;;10.90;8.98;;;13.90;99.90;;;;;;4976084;28;20606;-75
2022/04/29 06:16:37;;;;;;;13.35;11.45;;;14.00;99.90;;;;;;4975961;28;20734;-76
2022/04/29 06:19:21;;;;;;;11.90;10.80;;;14.20;99.90;;;;;;4992305;28;20697;-75
2022/04/29 06:22:06;;;;;;;12.18;10.32;;;14.30;99.90;;;;;;4991828;28;20721;-75
2022/04/29 06:24:39;;;;;;;13.52;10.93;;;14.60;99.90;;;;;;4990443;28;20744;-75
2022/04/29 06:27:06;;;;;;;10.57;9.00;;;14.80;99.90;;;;;;4992312;28;20624;-75
2022/04/29 06:29:32;;;;;;;12.43;10.07;;;15.00;99.90;;;;;;4992086;28;20771;-74
2022/04/29 06:31:59;;;;;;;9.80;8.60;;;15.20;99.90;;;;;;4974962;28;20178;-74
2022/04/29 06:34:50;;;;;;;9.90;8.87;;;15.40;99.90;;;;;;4992002;28;20637;-74
2022/04/29 06:37:17;;;;;;;10.53;7.87;;;15.70;99.90;;;;;;4967366;28;20630;-74
2022/04/29 06:39:43;;;;;;;13.60;9.50;;;15.90;99.90;;;;;;4956750;28;20167;-74
2022/04/29 06:42:46;;;;;;;9.73;8.73;;;16.00;99.90;;;;;;4971604;28;20625;-74
2022/04/29 06:45:30;;;;;;;15.57;10.43;;;16.20;99.90;;;;;;4975042;28;20618;-74
2022/04/29 06:48:31;;;;;;;11.77;9.10;;;16.30;99.90;;;;;;4894078;29;20601;-74
2022/04/29 06:51:16;;;;;;;17.27;10.17;;;16.40;99.90;;;;;;4969002;28;20595;-74
2022/04/29 06:53:47;;;;;;;8.03;7.00;;;16.50;99.90;;;;;;4987798;28;21033;-74
2022/04/29 06:56:18;;;;;;;9.87;8.87;;;16.60;99.90;;;;;;4987988;28;21225;-74
2022/04/29 06:58:44;;;;;;;11.03;8.80;;;16.60;99.90;;;;;;4939832;28;20601;-74
2022/04/29 07:01:09;;;;;;;11.63;9.00;;;16.70;99.80;;;;;;4967841;28;20603;-75
2022/04/29 07:03:38;;;;;;;11.67;8.80;;;16.80;99.80;;;;;;4963144;28;20587;-76
2022/04/29 07:06:06;;;;;;;10.90;9.77;;;16.90;99.80;;;;;;4971068;28;20183;-75
2022/04/29 07:08:32;;;;;;;11.00;8.70;;;17.10;99.70;;;;;;4970791;28;20987;-75
2022/04/29 07:11:33;;;;;;;10.13;9.10;;;17.30;99.70;;;;;;4950413;29;20595;-74
2022/04/29 07:14:06;;;;;;;10.80;9.20;;;17.50;99.60;;;;;;4939675;28;21241;-74
2022/04/29 07:16:42;;;;;;;10.93;9.70;;;17.70;99.30;;;;;;4974701;28;21169;-73
2022/04/29 07:19:22;;;;;;;11.47;8.77;;;17.80;98.90;;;;;;4990355;28;21336;-74
2022/04/29 07:21:48;;;;;;;12.40;8.50;;;18.00;98.80;;;;;;4974017;28;20609;-74
2022/04/29 07:24:15;;;;;;;10.80;9.30;;;18.10;98.60;;;;;;4990563;28;21166;-73
2022/04/29 07:26:42;;;;;;;10.20;8.93;;;18.30;98.40;;;;;;4974592;28;20574;-72
2022/04/29 07:29:10;;;;;;;11.10;9.80;;;18.40;98.20;;;;;;4990178;28;20586;-74
2022/04/29 07:31:45;;;;;;;12.03;10.00;;;18.50;98.00;;;;;;4957927;28;20585;-74
2022/04/29 07:41:44;;;;;;;22.03;10.27;;;18.70;97.70;;;;;;4991442;28;20597;-74
2022/04/29 07:43:01;;;;;;;15.07;8.40;;;19.50;97.40;;;;;;4987494;28;20594;-73
2022/04/29 07:45:28;;;;;;;9.20;8.30;;;19.80;97.50;;;;;;4969322;28;20641;-73
2022/04/29 07:48:12;;;;;;;11.67;9.07;;;20.10;97.30;;;;;;4954500;28;20934;-73
2022/04/29 07:50:39;;;;;;;11.53;8.63;;;20.40;96.70;;;;;;4954889;28;20580;-73
2022/04/29 07:53:05;;;;;;;9.87;8.47;;;20.60;96.20;;;;;;4955242;28;20181;-73
2022/04/29 07:55:31;;;;;;;9.60;8.30;;;20.70;95.70;;;;;;4971180;28;20734;-73
2022/04/29 07:57:57;;;;;;;13.70;8.90;;;20.80;95.30;;;;;;4940720;28;20795;-73
2022/04/29 08:00:23;;;;;;;9.67;8.87;;;21.00;94.90;;;;;;4973580;28;20635;-73
2022/04/29 08:02:51;;;;;;;10.60;9.43;;;21.20;94.60;;;;;;4974339;28;20949;-73
2022/04/29 08:05:29;;;;;;;10.33;8.97;;;21.40;94.20;;;;;;4958332;28;20602;-73
2022/04/29 08:07:59;;;;;;;10.80;8.90;;;21.50;93.80;;;;;;4957799;28;20617;-73
2022/04/29 08:10:27;;;;;;;14.67;9.13;;;21.70;93.60;;;;;;4957977;28;20172;-73
2022/04/29 08:12:53;;;;;;;11.63;9.63;;;21.90;93.20;;;;;;4957331;28;20994;-73
2022/04/29 08:15:49;;;;;;;10.13;8.57;;;22.10;92.90;;;;;;4963591;28;20654;-73
2022/04/29 08:18:39;;;;;;;10.73;8.07;;;22.20;92.40;;;;;;4971242;28;20633;-73
2022/04/29 08:21:04;;;;;;;13.93;9.70;;;22.30;91.60;;;;;;4973909;28;20579;-73
2022/04/29 08:23:31;;;;;;;11.43;9.20;;;22.30;91.20;;;;;;4990390;28;20575;-73
2022/04/29 08:25:57;;;;;;;11.60;9.17;;;22.20;90.70;;;;;;4974013;28;20649;-73
2022/04/29 08:28:25;;;;;;;15.00;8.67;;;22.20;90.40;;;;;;4963098;28;20621;-73
2022/04/29 08:30:52;;;;;;;11.60;8.50;;;22.20;90.00;;;;;;4959581;28;20594;-73
2022/04/29 08:33:18;;;;;;;9.13;8.33;;;22.00;89.30;;;;;;4973686;28;21343;-74
2022/04/29 08:35:48;;;;;;;13.97;10.33;;;22.00;89.10;;;;;;4926381;28;20673;-74
2022/04/29 08:38:14;;;;;;;13.87;9.40;;;21.90;88.60;;;;;;4973731;28;20685;-74
2022/04/29 08:40:46;;;;;;;10.40;9.10;;;21.80;88.50;;;;;;4965406;28;20616;-74
2022/04/29 08:43:15;;;;;;;13.00;9.17;;;21.70;88.00;;;;;;4973864;28;20597;-73
2022/04/29 08:45:43;;;;;;;10.70;9.00;;;21.60;87.60;;;;;;4957848;28;20745;-74
2022/04/29 08:48:31;;;;;;;10.70;9.60;;;21.40;87.50;;;;;;4954797;28;20610;-74
2022/04/29 08:50:59;;;;;;;11.80;8.93;;;21.30;87.30;;;;;;4974006;28;21182;-74
2022/04/29 08:53:25;;;;;;;11.27;9.60;;;21.30;87.50;;;;;;4960195;28;20690;-75
2022/04/29 08:58:38;;;;;;;9.53;8.53;;;21.40;88.70;;;;;;4972556;28;20583;-74
2022/04/29 09:01:10;;;;;;;12.43;9.67;;;21.60;88.60;;;;;;4971688;28;20607;-73
2022/04/29 09:03:37;;;;;;;11.93;8.90;;;21.80;88.60;;;;;;4988503;28;20935;-75
2022/04/29 09:06:06;;;;;;;9.77;8.87;;;21.90;88.00;;;;;;4974379;28;20571;-74
2022/04/29 09:08:40;;;;;;;10.20;9.20;;;22.00;87.00;;;;;;4974127;28;20583;-74
2022/04/29 09:11:06;;;;;;;10.17;9.17;;;22.10;85.80;;;;;;4974412;28;20575;-75
2022/04/29 09:13:35;;;;;;;8.97;7.97;;;22.10;85.20;;;;;;4989274;28;21156;-75
2022/04/29 09:16:11;;;;;;;10.17;8.30;;;22.00;84.30;;;;;;4974397;28;20662;-74
2022/04/29 09:18:40;;;;;;;10.00;7.87;;;22.00;83.70;;;;;;4957573;28;20959;-74
2022/04/29 09:21:18;;;;;;;9.70;8.70;;;22.00;84.30;;;;;;4973101;28;20567;-74
2022/04/29 09:23:54;;;;;;;9.63;8.63;;;22.00;83.80;;;;;;4940888;28;20579;-74
2022/04/29 09:26:59;;;;;;;9.30;8.07;;;22.00;83.90;;;;;;4972826;28;20587;-73
2022/04/29 09:29:44;;;;;;;9.33;8.17;;;22.10;84.10;;;;;;4972060;28;20603;-74
2022/04/29 09:32:13;;;;;;;9.77;8.77;;;22.10;83.30;;;;;;4973709;28;20618;-74
2022/04/29 09:35:10;;;;;;;9.47;8.57;;;22.10;83.30;;;;;;4973901;28;20642;-74
2022/04/29 09:39:26;;;;;;;10.60;9.57;;;22.10;83.00;;;;;;4973686;28;20657;-75
2022/04/29 09:40:22;;;;;;;10.10;8.33;;;22.10;83.00;;;;;;4973801;28;20179;-74
2022/04/29 09:42:48;;;;;;;11.07;9.97;;;22.10;83.30;;;;;;4973820;28;20574;-75
2022/04/29 09:45:20;;;;;;;13.00;9.40;;;22.20;84.40;;;;;;4989095;28;20191;-74
2022/04/29 09:47:53;;;;;;;8.80;7.90;;;22.50;85.00;;;;;;4975046;28;21259;-74
2022/04/29 09:50:22;;;;;;;10.60;8.30;;;22.90;85.90;;;;;;4993017;28;20574;-74
2022/04/29 09:52:49;;;;;;;11.07;8.30;;;23.40;85.70;;;;;;4993025;28;20575;-74
2022/04/29 09:55:21;;;;;;;9.50;8.50;;;23.90;86.00;;;;;;4991773;28;20713;-74
2022/04/29 09:57:49;;;;;;;9.50;8.40;;;24.30;85.10;;;;;;4992702;28;21229;-75
2022/04/29 10:00:16;;;;;;;10.67;7.90;;;24.90;84.70;;;;;;4992681;28;20650;-74
2022/04/29 10:02:42;;;;;;;9.43;8.30;;;25.30;83.30;;;;;;4975544;28;20573;-74
2022/04/29 10:05:09;;;;;;;9.10;8.10;;;25.70;80.90;;;;;;4991710;28;21137;-75
2022/04/29 10:07:39;;;;;;;9.23;7.20;;;26.10;80.20;;;;;;4975073;28;20946;-73
2022/04/29 10:10:05;;;;;;;10.60;9.00;;;26.40;78.80;;;;;;4992010;28;20674;-74
2022/04/29 10:12:33;;;;;;;10.43;8.17;;;26.70;76.80;;;;;;4975506;28;20628;-74
2022/04/29 10:15:26;;;;;;;8.53;7.67;;;27.00;74.90;;;;;;4976169;28;21160;-73
2022/04/29 10:21:18;;;;;;;9.20;8.00;;;27.30;71.10;;;;;;4992307;28;20590;-73
2022/04/29 10:23:49;;;;;;;8.33;7.53;;;27.10;69.50;;;;;;4991313;28;20613;-74
2022/04/29 10:26:19;;;;;;;9.80;8.90;;;26.90;67.70;;;;;;4992568;28;20571;-74
2022/04/29 10:28:45;;;;;;;20.43;10.67;;;26.60;66.60;;;;;;4992378;28;20580;-74
2022/04/29 10:31:19;;;;;;;10.77;8.50;;;26.30;66.00;;;;;;4990949;28;20586;-74
2022/04/29 10:33:45;;;;;;;9.53;8.60;;;26.00;65.00;;;;;;4992512;28;20601;-74
2022/04/29 10:36:15;;;;;;;9.60;8.70;;;25.60;64.90;;;;;;4991937;28;20626;-74
2022/04/29 10:38:47;;;;;;;11.47;10.37;;;25.30;65.40;;;;;;4993012;28;20574;-74
2022/04/29 10:41:21;;;;;;;11.07;9.97;;;25.10;66.20;;;;;;4976096;28;20574;-74
2022/04/29 10:43:50;;;;;;;10.30;9.30;;;24.90;67.20;;;;;;4975078;28;20637;-74
2022/04/29 10:46:23;;;;;;;12.07;10.90;;;24.90;67.90;;;;;;4991267;28;20973;-74
2022/04/29 10:49:25;;;;;;;12.10;10.53;;;24.90;68.30;;;;;;4990544;28;20960;-74
2022/04/29 10:52:27;;;;;;;15.67;9.93;;;24.90;68.40;;;;;;4978907;28;21046;-74
2022/04/29 10:55:06;;;;;;;12.50;10.30;;;25.00;69.20;;;;;;4984590;28;20602;-75
2022/04/29 10:57:41;;;;;;;17.47;11.23;;;25.00;68.10;;;;;;4982716;28;20675;-75
2022/04/29 11:00:13;;;;;;;11.20;10.03;;;24.90;67.40;;;;;;4990865;28;20653;-75
2022/04/29 11:02:40;;;;;;;10.70;9.60;;;24.90;67.30;;;;;;4976151;28;21005;-76
2022/04/29 11:05:08;;;;;;;14.85;10.00;;;24.90;67.50;;;;;;4989031;28;20776;-74
2022/04/29 11:07:35;;;;;;;12.30;10.00;;;24.80;66.90;;;;;;4991035;28;20186;-77
2022/04/29 11:10:07;;;;;;;10.70;9.70;;;24.70;67.30;;;;;;4992499;28;20586;-76
2022/04/29 11:12:38;;;;;;;10.87;8.93;;;24.70;67.00;;;;;;4991054;28;20933;-74
2022/04/29 11:15:24;;;;;;;15.35;13.32;;;24.70;67.30;;;;;;4991381;28;20713;-72
2022/04/29 11:18:26;;;;;;;10.03;8.90;;;24.70;65.10;;;;;;4990412;28;20186;-72
2022/04/29 11:20:57;;;;;;;11.50;8.17;;;24.90;67.50;;;;;;4983310;28;20606;-75
2022/04/29 11:26:11;;;;;;;11.17;8.40;;;25.30;63.70;;;;;;4976407;28;20525;-74
2022/04/29 11:28:41;;;;;;;10.03;8.20;;;25.50;66.10;;;;;;4942432;28;20975;-74
2022/04/29 11:31:35;;;;;;;13.18;10.95;;;25.80;66.20;;;;;;4957636;28;20706;-73
2022/04/29 11:34:19;;;;;;;8.20;7.13;;;25.80;61.70;;;;;;4959225;28;20195;-73
2022/04/29 11:36:45;;;;;;;7.90;7.17;;;25.90;62.50;;;;;;4958828;28;21242;-73
2022/04/29 11:39:16;;;;;;;9.50;7.17;;;26.10;62.70;;;;;;4942244;28;20589;-73
2022/04/29 11:41:56;;;;;;;8.70;7.80;;;26.20;62.20;;;;;;4975308;28;21015;-73
2022/04/29 11:44:40;;;;;;;6.10;5.50;;;26.20;61.40;;;;;;4975823;28;20622;-73
2022/04/29 11:47:06;;;;;;;8.50;6.30;;;26.20;61.40;;;;;;4958672;28;20686;-73
2022/04/29 11:49:34;;;;;;;7.93;6.50;;;26.30;62.00;;;;;;4958071;28;20571;-73
2022/04/29 11:52:32;;;;;;;8.23;6.70;;;26.30;61.20;;;;;;4958245;28;20662;-73
2022/04/29 11:55:06;;;;;;;8.07;6.77;;;26.20;60.70;;;;;;4975169;28;20610;-73
2022/04/29 11:57:33;;;;;;;7.07;5.73;;;26.30;61.70;;;;;;4975364;28;20629;-73
2022/04/29 12:00:00;;;;;;;7.37;6.50;;;26.40;61.70;;;;;;4975534;28;20567;-75
2022/04/29 12:02:28;;;;;;;8.43;6.07;;;26.40;60.70;;;;;;4975723;28;20612;-75
2022/04/29 12:04:54;;;;;;;10.30;7.20;;;26.50;59.90;;;;;;4958563;28;20630;-74
2022/04/29 12:07:21;;;;;;;7.43;6.20;;;26.50;59.60;;;;;;4975487;28;20567;-75
2022/04/29 12:09:48;;;;;;;8.07;6.27;;;26.50;59.40;;;;;;4957376;28;21205;-74
2022/04/29 12:12:28;;;;;;;9.10;7.10;;;26.50;59.20;;;;;;4975544;28;20573;-75
2022/04/29 12:14:55;;;;;;;9.10;6.00;;;26.40;58.90;;;;;;4975562;28;20539;-75
2022/04/29 12:17:39;;;;;;;7.30;6.60;;;26.40;58.90;;;;;;4975260;28;20634;-75
2022/04/29 12:20:07;;;;;;;7.23;6.53;;;26.40;58.40;;;;;;4974909;28;20567;-75
2022/04/29 12:22:36;;;;;;;5.93;5.10;;;26.30;58.00;;;;;;4975387;28;20729;-75
2022/04/29 12:25:28;;;;;;;7.83;7.03;;;26.10;57.60;;;;;;4957771;28;20665;-75
2022/04/29 12:28:13;;;;;;;7.27;5.93;;;26.00;57.40;;;;;;4974934;28;20571;-75
2022/04/29 12:36:58;;;;;;;8.33;5.27;;;25.70;57.30;;;;;;4958015;28;20618;-75
2022/04/29 12:39:35;;;;;;;7.53;6.07;;;25.50;57.30;;;;;;4957344;28;20567;-75
2022/04/29 12:42:09;;;;;;;7.07;5.50;;;25.40;56.80;;;;;;4958281;28;20623;-75
2022/04/29 12:45:04;;;;;;;7.27;6.57;;;25.30;56.70;;;;;;4974688;28;20613;-74
2022/04/29 12:47:44;;;;;;;7.40;6.23;;;25.00;56.30;;;;;;4957988;28;20579;-74
2022/04/29 12:50:47;;;;;;;7.97;5.27;;;24.90;56.50;;;;;;4974645;28;20574;-75
2022/04/29 12:53:18;;;;;;;8.73;6.50;;;24.70;56.20;;;;;;4942280;28;20573;-74
2022/04/29 12:55:44;;;;;;;8.63;6.83;;;24.50;55.90;;;;;;4974829;28;20626;-75
2022/04/29 12:58:21;;;;;;;7.53;5.97;;;24.30;56.00;;;;;;4972253;28;20602;-76
2022/04/29 13:01:06;;;;;;;6.20;5.10;;;24.10;56.10;;;;;;4973529;28;20656;-76
2022/04/29 13:03:36;;;;;;;10.63;8.50;;;24.00;56.60;;;;;;4956540;28;20718;-73
2022/04/29 13:06:25;;;;;;;6.97;5.53;;;23.70;56.10;;;;;;4952985;28;20211;-74
2022/04/29 13:08:53;;;;;;;8.50;7.00;;;23.70;56.50;;;;;;4972242;28;20746;-75
2022/04/29 13:11:19;;;;;;;7.10;5.70;;;23.80;56.50;;;;;;4972645;28;20625;-75
2022/04/29 13:13:45;;;;;;;8.37;5.50;;;23.80;56.50;;;;;;4974231;28;20567;-75
2022/04/29 13:16:12;;;;;;;7.40;5.17;;;23.80;56.30;;;;;;4956835;28;20725;-75
2022/04/29 13:18:39;;;;;;;8.90;5.93;;;23.80;56.30;;;;;;4966977;23;20660;-73
2022/04/29 13:21:07;;;;;;;8.80;6.80;;;23.70;56.20;;;;;;4936937;29;20607;-73
2022/04/29 13:23:44;;;;;;;11.17;5.90;;;23.60;56.10;;;;;;4952931;28;20962;-73
2022/04/29 13:26:17;;;;;;;7.53;6.40;;;23.60;56.60;;;;;;4953285;28;20568;-73
2022/04/29 13:28:43;;;;;;;10.87;6.77;;;23.60;56.90;;;;;;4953785;28;21306;-72
2022/04/29 13:31:09;;;;;;;9.27;5.60;;;23.50;57.10;;;;;;4963979;28;20583;-73
2022/04/29 13:33:35;;;;;;;8.43;6.90;;;23.50;57.40;;;;;;4965509;28;20192;-73
2022/04/29 13:36:02;;;;;;;7.00;5.77;;;23.40;57.20;;;;;;4962192;28;20635;-74